createdAt,value
2023-04-11T00:00:42.715Z,1.80
2023-04-11T00:03:11.093Z,1.80
2023-04-11T00:05:39.215Z,1.30
2023-04-11T00:08:07.273Z,1.50
2023-04-11T00:10:35.287Z,1.50
2023-04-11T00:13:03.176Z,2.00
2023-04-11T00:15:32.610Z,2.00
2023-04-11T00:18:02.965Z,1.37
2023-04-11T00:20:31.133Z,1.37
2023-04-11T00:22:59.281Z,1.40
2023-04-11T00:25:27.316Z,1.40
2023-04-11T00:27:55.335Z,1.80
2023-04-11T00:30:23.299Z,1.57
2023-04-11T00:32:51.361Z,1.70
2023-04-11T00:35:20.825Z,1.57
2023-04-11T00:37:54.096Z,1.60
2023-04-11T00:40:22.099Z,1.50
2023-04-11T00:42:50.144Z,1.70
2023-04-11T00:45:18.162Z,1.50
2023-04-11T00:47:47.713Z,1.10
2023-04-11T00:50:16.794Z,1.57
2023-04-11T00:52:47.920Z,1.57
2023-04-11T00:55:16.504Z,1.70
2023-04-11T00:57:45.364Z,1.47
2023-04-11T01:00:15.195Z,1.50
2023-04-11T01:02:45.172Z,1.90
2023-04-11T01:05:15.108Z,1.57
2023-04-11T01:07:47.775Z,1.63
2023-04-11T01:10:17.196Z,1.60
2023-04-11T01:12:47.215Z,1.57
2023-04-11T01:15:15.534Z,1.67
2023-04-11T01:17:43.618Z,1.50
2023-04-11T01:20:13.062Z,1.60
2023-04-11T01:22:42.837Z,1.70
2023-04-11T01:25:13.390Z,1.53
2023-04-11T01:27:42.257Z,1.30
2023-04-11T01:30:12.401Z,1.63
2023-04-11T01:32:40.391Z,1.50
2023-04-11T01:35:09.671Z,1.57
2023-04-11T01:37:37.774Z,1.63
2023-04-11T01:40:07.232Z,2.07
2023-04-11T01:42:37.896Z,1.40
2023-04-11T01:45:27.072Z,1.93
2023-04-11T01:47:55.438Z,1.47
2023-04-11T01:50:23.675Z,1.40
2023-04-11T01:52:51.987Z,1.77
2023-04-11T01:55:19.986Z,1.30
2023-04-11T01:57:49.253Z,1.60
2023-04-11T02:00:18.042Z,1.90
2023-04-11T02:02:46.134Z,1.60
2023-04-11T02:05:14.206Z,1.40
2023-04-11T02:07:42.231Z,1.73
2023-04-11T02:10:10.672Z,1.77
2023-04-11T02:12:38.645Z,1.00
2023-04-11T02:15:09.617Z,1.50
2023-04-11T02:17:37.567Z,1.33
2023-04-11T02:20:07.188Z,1.07
2023-04-11T02:22:35.156Z,1.33
2023-04-11T02:25:03.061Z,1.53
2023-04-11T02:27:31.398Z,1.27
2023-04-11T02:30:00.173Z,1.30
2023-04-11T02:32:30.389Z,1.50
2023-04-11T02:34:58.320Z,1.50
2023-04-11T02:37:26.325Z,1.43
2023-04-11T02:39:54.294Z,1.37
2023-04-11T02:42:22.278Z,0.90
2023-04-11T02:44:50.248Z,1.43
2023-04-11T02:47:18.423Z,1.23
2023-04-11T02:49:47.731Z,1.67
2023-04-11T02:52:15.814Z,1.13
2023-04-11T02:54:43.761Z,1.17
2023-04-11T02:57:11.718Z,1.40
2023-04-11T02:59:39.798Z,1.40
2023-04-11T03:02:07.874Z,1.17
2023-04-11T03:04:36.020Z,0.93
2023-04-11T03:07:05.466Z,0.90
2023-04-11T03:09:33.396Z,1.07
2023-04-11T03:12:01.308Z,1.43
2023-04-11T03:14:29.288Z,1.13
2023-04-11T03:16:57.253Z,1.00
2023-04-11T03:19:25.278Z,1.70
2023-04-11T03:21:53.242Z,1.00
2023-04-11T03:24:23.284Z,1.03
2023-04-11T03:26:51.226Z,1.30
2023-04-11T03:29:19.128Z,0.93
2023-04-11T03:31:47.079Z,1.10
2023-04-11T03:34:15.012Z,1.10
2023-04-11T03:36:42.878Z,2.20
2023-04-11T03:39:11.106Z,1.00
2023-04-11T03:41:40.372Z,1.10
2023-04-11T03:44:08.337Z,1.10
2023-04-11T03:46:36.348Z,0.90
2023-04-11T03:49:04.484Z,1.00
2023-04-11T03:51:32.663Z,0.93
2023-04-11T03:54:00.623Z,0.90
2023-04-11T03:56:28.543Z,1.33
2023-04-11T03:58:58.050Z,1.30
2023-04-11T04:01:26.323Z,1.17
2023-04-11T04:03:54.624Z,0.70
2023-04-11T04:06:22.911Z,1.13
2023-04-11T04:08:50.848Z,0.90
2023-04-11T04:11:18.786Z,1.00
2023-04-11T04:13:46.715Z,1.00
2023-04-11T04:16:17.572Z,0.97
2023-04-11T04:18:45.607Z,1.03
2023-04-11T04:21:13.731Z,0.83
2023-04-11T04:23:47.640Z,0.70
2023-04-11T04:26:16.985Z,0.90
2023-04-11T04:28:47.293Z,0.70
2023-04-11T04:31:22.267Z,0.87
2023-04-11T04:33:50.474Z,0.80
2023-04-11T04:36:18.951Z,1.10
2023-04-11T04:38:47.908Z,1.10
2023-04-11T04:41:15.954Z,0.63
2023-04-11T04:43:43.885Z,0.77
2023-04-11T04:46:11.998Z,0.80
2023-04-11T04:48:41.322Z,0.87
2023-04-11T04:51:09.482Z,1.27
2023-04-11T04:53:38.803Z,0.57
2023-04-11T04:56:07.992Z,0.60
2023-04-11T04:58:36.051Z,1.37
2023-04-11T05:01:04.089Z,1.43
2023-04-11T05:03:34.829Z,0.90
2023-04-11T05:06:06.300Z,0.70
2023-04-11T05:08:35.081Z,1.00
2023-04-11T05:11:03.077Z,1.10
2023-04-11T05:13:34.287Z,0.67
2023-04-11T05:16:02.339Z,0.90
2023-04-11T05:18:31.052Z,0.80
2023-04-11T05:20:58.979Z,0.60
2023-04-11T05:23:28.274Z,0.63
2023-04-11T05:25:56.289Z,0.80
2023-04-11T05:28:24.263Z,1.00
2023-04-11T05:30:52.213Z,1.03
2023-04-11T05:33:21.700Z,0.90
2023-04-11T05:35:49.732Z,0.77
2023-04-11T05:38:17.764Z,1.07
2023-04-11T05:40:47.054Z,0.50
2023-04-11T05:43:15.303Z,0.67
2023-04-11T05:45:47.500Z,0.70
2023-04-11T05:48:16.411Z,0.90
2023-04-11T05:50:44.420Z,0.70
2023-04-11T05:53:12.509Z,0.70
2023-04-11T05:55:40.451Z,1.07
2023-04-11T05:58:10.039Z,0.70
2023-04-11T06:00:38.178Z,0.60
2023-04-11T06:03:07.915Z,0.93
2023-04-11T06:05:36.369Z,0.50
2023-04-11T06:08:05.615Z,0.93
2023-04-11T06:10:33.730Z,0.60
2023-04-11T06:13:01.663Z,0.63
2023-04-11T06:15:31.138Z,0.73
2023-04-11T06:17:59.264Z,0.60
2023-04-11T06:20:27.310Z,0.70
2023-04-11T06:22:55.378Z,0.80
2023-04-11T06:25:24.460Z,0.60
2023-04-11T06:27:52.443Z,1.80
2023-04-11T06:30:20.439Z,0.50
2023-04-11T06:32:49.744Z,0.67
2023-04-11T06:35:20.289Z,0.70
2023-04-11T06:37:48.235Z,1.07
2023-04-11T06:40:17.200Z,0.70
2023-04-11T06:42:45.169Z,1.00
2023-04-11T06:45:13.584Z,0.70
2023-04-11T06:47:41.710Z,0.80
2023-04-11T06:50:12.102Z,0.90
2023-04-11T06:52:40.070Z,1.00
2023-04-11T06:55:10.075Z,0.67
2023-04-11T06:57:37.993Z,0.60
2023-04-11T07:00:08.008Z,0.80
2023-04-11T07:02:36.656Z,0.67
2023-04-11T07:05:04.992Z,1.00
2023-04-11T07:07:34.326Z,0.50
2023-04-11T07:10:02.257Z,0.43
2023-04-11T07:12:30.507Z,0.60
2023-04-11T07:14:58.483Z,0.77
2023-04-11T07:17:26.581Z,1.10
2023-04-11T07:19:54.591Z,1.53
2023-04-11T07:22:22.512Z,0.50
2023-04-11T07:24:55.132Z,0.60
2023-04-11T07:27:24.030Z,0.90
2023-04-11T07:29:51.947Z,1.10
2023-04-11T07:32:20.027Z,0.63
2023-04-11T07:34:48.008Z,0.77
2023-04-11T07:37:16.180Z,0.60
2023-04-11T07:39:44.634Z,1.33
2023-04-11T07:42:13.942Z,1.13
2023-04-11T07:44:41.928Z,0.90
2023-04-11T07:47:09.920Z,1.37
2023-04-11T07:49:40.705Z,1.00
2023-04-11T07:52:08.734Z,0.50
2023-04-11T07:54:36.947Z,1.13
2023-04-11T07:57:04.924Z,0.60
2023-04-11T07:59:34.203Z,0.77
2023-04-11T08:02:04.377Z,0.80
2023-04-11T08:04:33.696Z,1.10
2023-04-11T08:07:02.013Z,0.83
2023-04-11T08:09:30.044Z,0.60
2023-04-11T08:11:58.390Z,0.60
2023-04-11T08:14:27.857Z,0.77
2023-04-11T08:16:57.365Z,0.63
2023-04-11T08:19:25.763Z,1.83
2023-04-11T08:21:53.911Z,0.93
2023-04-11T08:24:21.974Z,1.63
2023-04-11T08:26:49.934Z,1.07
2023-04-11T08:29:20.599Z,1.60
2023-04-11T08:31:48.724Z,0.90
2023-04-11T08:34:18.032Z,1.07
2023-04-11T08:36:45.984Z,0.73
2023-04-11T08:39:13.920Z,0.60
2023-04-11T08:41:42.012Z,0.60
2023-04-11T08:44:12.751Z,0.67
2023-04-11T08:46:43.174Z,0.50
2023-04-11T08:49:11.765Z,1.70
2023-04-11T08:51:43.111Z,0.87
2023-04-11T08:54:11.511Z,0.93
2023-04-11T08:56:42.429Z,1.20
2023-04-11T08:59:10.371Z,1.07
2023-04-11T09:01:40.868Z,1.63
2023-04-11T09:04:11.380Z,0.60
2023-04-11T09:06:42.679Z,0.73
2023-04-11T09:09:29.999Z,1.27
2023-04-11T09:11:58.807Z,1.30
2023-04-11T09:14:27.731Z,1.60
2023-04-11T09:16:57.610Z,1.40
2023-04-11T09:19:26.402Z,0.60
2023-04-11T09:21:58.096Z,1.23
2023-04-11T09:24:26.495Z,1.70
2023-04-11T09:27:08.698Z,0.60
2023-04-11T09:29:38.184Z,0.73
2023-04-11T09:32:06.517Z,1.07
2023-04-11T09:34:37.531Z,0.67
2023-04-11T09:37:06.892Z,1.00
2023-04-11T09:39:34.923Z,1.53
2023-04-11T09:42:03.259Z,1.07
2023-04-11T09:44:38.700Z,1.13
2023-04-11T09:47:06.795Z,0.90
2023-04-11T09:49:36.106Z,0.90
2023-04-11T09:52:06.244Z,0.83
2023-04-11T09:54:34.522Z,0.80
2023-04-11T09:57:03.931Z,0.70
2023-04-11T09:59:33.291Z,1.53
2023-04-11T10:02:01.562Z,1.40
2023-04-11T10:04:29.952Z,1.03
2023-04-11T10:07:10.422Z,0.87
2023-04-11T10:09:40.136Z,2.50
2023-04-11T10:12:08.137Z,0.60
2023-04-11T10:14:46.432Z,0.90
2023-04-11T10:17:22.111Z,1.07
2023-04-11T10:19:56.447Z,1.40
2023-04-11T10:23:01.438Z,1.23
2023-04-11T10:25:29.839Z,0.70
2023-04-11T10:28:01.008Z,0.73
2023-04-11T10:31:01.589Z,0.90
2023-04-11T10:33:29.646Z,1.10
2023-04-11T10:35:58.897Z,1.00
2023-04-11T10:38:51.063Z,1.60
2023-04-11T10:41:31.367Z,0.93
2023-04-11T10:44:18.050Z,0.80
2023-04-11T10:46:51.435Z,0.87
2023-04-11T10:49:37.324Z,1.07
2023-04-11T10:52:22.501Z,1.03
2023-04-11T10:54:53.564Z,1.27
2023-04-11T10:57:22.921Z,1.23
2023-04-11T11:00:16.669Z,0.70
2023-04-11T11:02:44.763Z,1.37
2023-04-11T11:05:24.103Z,1.53
2023-04-11T11:07:54.103Z,1.57
2023-04-11T11:10:40.636Z,0.90
2023-04-11T11:13:09.167Z,1.00
2023-04-11T11:15:38.465Z,1.13
2023-04-11T11:18:09.897Z,1.00
2023-04-11T11:20:38.532Z,0.70
2023-04-11T11:23:08.754Z,0.83
2023-04-11T11:25:37.004Z,1.77
2023-04-11T11:28:08.150Z,0.97
2023-04-11T11:30:37.289Z,1.10
2023-04-11T11:33:18.672Z,1.10
2023-04-11T11:35:52.830Z,1.33
2023-04-11T11:38:21.765Z,1.33
2023-04-11T11:40:50.346Z,1.13
2023-04-11T11:43:19.635Z,0.70
2023-04-11T11:45:47.729Z,0.80
2023-04-11T11:48:23.188Z,1.63
2023-04-11T11:50:57.242Z,3.57
2023-04-11T11:53:25.988Z,1.57
2023-04-11T11:55:54.805Z,1.17
2023-04-11T11:58:24.152Z,1.20
2023-04-11T12:00:52.894Z,1.37
2023-04-11T12:03:23.645Z,1.37
2023-04-11T12:05:52.881Z,2.10
2023-04-11T12:08:22.209Z,1.53
2023-04-11T12:10:51.596Z,1.33
2023-04-11T12:13:22.160Z,0.90
2023-04-11T12:15:54.200Z,1.20
2023-04-11T12:18:22.782Z,1.37
2023-04-11T12:20:51.540Z,0.70
2023-04-11T12:23:19.701Z,1.17
2023-04-11T12:25:48.048Z,0.80
2023-04-11T12:28:16.313Z,1.23
2023-04-11T12:30:44.220Z,1.30
2023-04-11T12:33:13.490Z,0.90
2023-04-11T12:35:41.461Z,0.73
2023-04-11T12:38:10.845Z,1.23
2023-04-11T12:40:41.132Z,1.57
2023-04-11T12:43:09.099Z,0.80
2023-04-11T12:45:37.573Z,1.30
2023-04-11T12:48:06.017Z,0.90
2023-04-11T12:50:35.293Z,2.00
2023-04-11T12:53:03.273Z,1.23
2023-04-11T12:55:31.290Z,1.23
2023-04-11T12:57:59.203Z,1.13
2023-04-11T13:00:27.147Z,1.30
2023-04-11T13:02:56.424Z,1.40
2023-04-11T13:05:24.659Z,1.67
2023-04-11T13:07:53.964Z,1.10
2023-04-11T13:10:21.987Z,0.90
2023-04-11T13:12:53.145Z,1.23
2023-04-11T13:15:21.251Z,0.70
2023-04-11T13:17:49.227Z,0.90
2023-04-11T13:20:17.389Z,1.40
2023-04-11T13:22:45.405Z,1.70
2023-04-11T13:25:14.696Z,2.93
2023-04-11T13:27:43.372Z,1.53
2023-04-11T13:30:12.200Z,0.93
2023-04-11T13:32:40.338Z,1.00
2023-04-11T13:35:09.365Z,1.20
2023-04-11T13:37:37.307Z,0.97
2023-04-11T13:40:08.326Z,0.90
2023-04-11T13:42:37.698Z,1.67
2023-04-11T13:45:06.391Z,1.10
2023-04-11T13:47:37.651Z,0.80
2023-04-11T13:50:08.408Z,1.37
2023-04-11T13:52:36.440Z,1.07
2023-04-11T13:55:04.577Z,1.60
2023-04-11T13:57:32.536Z,1.60
2023-04-11T14:00:01.895Z,1.60
2023-04-11T14:02:29.923Z,1.07
2023-04-11T14:04:58.098Z,1.00
2023-04-11T14:07:26.016Z,0.90
2023-04-11T14:09:54.003Z,1.13
2023-04-11T14:12:21.890Z,1.27
2023-04-11T14:14:56.096Z,0.80
2023-04-11T14:17:25.496Z,1.10
2023-04-11T14:19:53.502Z,3.23
2023-04-11T14:22:21.437Z,1.13
2023-04-11T14:24:49.362Z,1.63
2023-04-11T14:27:17.268Z,1.07
2023-04-11T14:29:46.156Z,1.30
2023-04-11T14:32:14.081Z,0.67
2023-04-11T14:34:43.321Z,1.17
2023-04-11T14:37:11.331Z,1.00
2023-04-11T14:39:39.915Z,1.70
2023-04-11T14:42:09.092Z,1.07
2023-04-11T14:44:39.192Z,1.03
2023-04-11T14:47:07.165Z,0.90
2023-04-11T14:49:35.117Z,1.63
2023-04-11T14:52:04.472Z,1.37
2023-04-11T14:54:32.438Z,0.80
2023-04-11T14:57:00.529Z,2.70
2023-04-11T14:59:28.656Z,1.00
2023-04-11T15:01:57.140Z,1.43
2023-04-11T15:04:25.211Z,1.20
2023-04-11T15:06:53.196Z,0.90
2023-04-11T15:09:22.446Z,1.37
2023-04-11T15:11:50.366Z,1.43
2023-04-11T15:14:18.332Z,1.20
2023-04-11T15:16:46.243Z,1.37
2023-04-11T15:19:14.188Z,2.30
2023-04-11T15:21:42.075Z,0.90
2023-04-11T15:24:10.295Z,1.47
2023-04-11T15:26:39.584Z,1.13
2023-04-11T15:29:14.198Z,1.83
2023-04-11T15:31:42.200Z,0.93
2023-04-11T15:34:10.336Z,3.40
2023-04-11T15:36:39.218Z,1.03
2023-04-11T15:39:07.151Z,1.20
2023-04-11T15:41:35.045Z,1.87
2023-04-11T15:44:04.623Z,0.90
2023-04-11T15:46:32.558Z,1.73
2023-04-11T15:49:00.577Z,1.48
2023-04-11T15:51:29.085Z,2.83
2023-04-11T15:53:57.168Z,2.57
2023-04-11T15:56:25.432Z,1.23
2023-04-11T15:58:53.323Z,1.37
2023-04-11T16:01:24.962Z,1.47
2023-04-11T16:03:54.526Z,1.63
2023-04-11T16:06:22.578Z,1.53
2023-04-11T16:08:50.807Z,1.20
2023-04-11T16:11:18.714Z,1.27
2023-04-11T16:13:46.650Z,1.50
2023-04-11T16:16:14.576Z,1.70
2023-04-11T16:18:43.935Z,1.80
2023-04-11T16:21:16.378Z,1.33
2023-04-11T16:23:44.350Z,1.20
2023-04-11T16:26:12.341Z,1.50
2023-04-11T16:28:40.681Z,0.97
2023-04-11T16:31:09.278Z,1.80
2023-04-11T16:33:37.250Z,1.20
2023-04-11T16:36:07.464Z,1.23
2023-04-11T16:38:35.423Z,1.57
2023-04-11T16:41:03.385Z,1.00
2023-04-11T16:43:31.296Z,1.00
2023-04-11T16:45:59.574Z,1.57
2023-04-11T16:48:27.582Z,1.13
2023-04-11T16:50:55.537Z,1.70
2023-04-11T16:53:24.782Z,5.23
2023-04-11T16:55:53.567Z,1.17
2023-04-11T16:58:21.503Z,3.00
2023-04-11T17:00:51.104Z,1.10
2023-04-11T17:03:19.527Z,1.77
2023-04-11T17:05:47.516Z,2.03
2023-04-11T17:08:15.685Z,1.93
2023-04-11T17:10:45.128Z,0.80
2023-04-11T17:13:14.573Z,2.33
2023-04-11T17:15:42.505Z,1.20
2023-04-11T17:18:10.492Z,1.37
2023-04-11T17:20:38.396Z,1.60
2023-04-11T17:23:06.332Z,0.87
2023-04-11T17:25:34.265Z,2.20
2023-04-11T17:28:03.776Z,1.17
2023-04-11T17:30:32.742Z,1.07
2023-04-11T17:33:00.825Z,2.20
2023-04-11T17:35:29.301Z,0.70
2023-04-11T17:37:57.219Z,0.93
2023-04-11T17:40:25.225Z,1.90
2023-04-11T17:42:53.146Z,1.30
2023-04-11T17:45:22.478Z,1.17
2023-04-11T17:47:51.079Z,2.63
2023-04-11T17:50:20.035Z,1.30
2023-04-11T17:52:48.476Z,1.80
2023-04-11T17:55:18.709Z,1.83
2023-04-11T17:57:48.996Z,1.23
2023-04-11T18:00:22.074Z,1.30
2023-04-11T18:02:54.470Z,1.57
2023-04-11T18:05:25.585Z,2.37
2023-04-11T18:07:56.424Z,0.87
2023-04-11T18:10:25.745Z,1.80
2023-04-11T18:12:54.928Z,2.30
2023-04-11T18:15:23.716Z,1.50
2023-04-11T18:17:53.468Z,1.80
2023-04-11T18:20:21.564Z,1.10
2023-04-11T18:22:51.510Z,1.30
2023-04-11T18:25:19.612Z,1.60
2023-04-11T18:27:47.894Z,1.43
2023-04-11T18:30:16.950Z,1.47
2023-04-11T18:32:49.347Z,1.80
2023-04-11T18:35:19.756Z,2.37
2023-04-11T18:37:47.749Z,1.37
2023-04-11T18:40:15.901Z,1.30
2023-04-11T18:42:46.121Z,3.03
2023-04-11T18:45:15.429Z,1.23
2023-04-11T18:47:44.046Z,1.30
2023-04-11T18:50:12.544Z,1.43
2023-04-11T18:52:42.936Z,1.23
2023-04-11T18:55:11.374Z,1.10
2023-04-11T18:57:39.758Z,1.33
2023-04-11T19:00:18.018Z,2.23
2023-04-11T19:02:47.540Z,1.20
2023-04-11T19:05:16.352Z,1.90
2023-04-11T19:07:46.657Z,1.27
2023-04-11T19:10:14.847Z,2.20
2023-04-11T19:12:42.881Z,1.60
2023-04-11T19:15:12.077Z,2.20
2023-04-11T19:17:40.470Z,2.03
2023-04-11T19:20:12.426Z,2.03
2023-04-11T19:22:41.230Z,1.70
2023-04-11T19:25:12.103Z,1.80
2023-04-11T19:27:41.602Z,1.43
2023-04-11T19:30:11.479Z,1.80
2023-04-11T19:32:42.960Z,1.60
2023-04-11T19:35:11.712Z,1.53
2023-04-11T19:37:39.950Z,1.23
2023-04-11T19:40:12.376Z,2.00
2023-04-11T19:42:41.532Z,1.70
2023-04-11T19:45:11.736Z,2.10
2023-04-11T19:47:40.665Z,2.33
2023-04-11T19:50:12.758Z,2.63
2023-04-11T19:52:40.876Z,2.23
2023-04-11T19:55:11.152Z,1.90
2023-04-11T19:57:40.087Z,2.30
2023-04-11T20:00:13.981Z,2.37
2023-04-11T20:02:48.070Z,1.90
2023-04-11T20:05:17.413Z,2.13
2023-04-11T20:07:45.648Z,2.43
2023-04-11T20:10:16.203Z,1.93
2023-04-11T20:12:44.161Z,2.60
2023-04-11T20:15:12.369Z,2.63
2023-04-11T20:17:40.344Z,2.30
2023-04-11T20:20:11.221Z,2.67
2023-04-11T20:22:40.236Z,2.30
2023-04-11T20:25:11.324Z,2.43
2023-04-11T20:27:41.258Z,2.63
2023-04-11T20:30:10.640Z,2.73
2023-04-11T20:32:41.761Z,2.23
2023-04-11T20:35:12.062Z,2.50
2023-04-11T20:37:41.193Z,3.47
2023-04-11T20:40:10.948Z,2.93
2023-04-11T20:42:41.143Z,2.83
2023-04-11T20:45:11.168Z,3.27
2023-04-11T20:47:39.359Z,3.53
2023-04-11T20:50:10.102Z,2.90
2023-04-11T20:52:41.020Z,2.80
2023-04-11T20:55:10.120Z,3.30
2023-04-11T20:57:38.288Z,3.27
2023-04-11T21:00:16.440Z,4.00
2023-04-11T21:02:46.500Z,3.47
2023-04-11T21:05:15.208Z,3.53
2023-04-11T21:07:43.406Z,5.40
2023-04-11T21:10:12.073Z,3.70
2023-04-11T21:12:40.758Z,3.77
2023-04-11T21:15:11.743Z,3.60
2023-04-11T21:17:40.342Z,3.37
2023-04-11T21:20:12.091Z,3.33
2023-04-11T21:22:40.516Z,4.40
2023-04-11T21:25:09.594Z,4.23
2023-04-11T21:27:37.506Z,4.30
2023-04-11T21:30:06.469Z,3.80
2023-04-11T21:32:35.849Z,4.70
2023-04-11T21:35:04.939Z,3.50
2023-04-11T21:37:32.873Z,3.50
2023-04-11T21:40:00.962Z,4.90
2023-04-11T21:42:28.945Z,3.80
2023-04-11T21:44:56.852Z,3.80
2023-04-11T21:47:24.911Z,3.43
2023-04-11T21:49:54.230Z,4.07
2023-04-11T21:52:22.176Z,3.87
2023-04-11T21:54:50.095Z,4.17
2023-04-11T21:57:18.038Z,3.13
2023-04-11T21:59:46.714Z,3.23
2023-04-11T22:02:14.777Z,3.80
2023-04-11T22:05:01.176Z,3.27
2023-04-11T22:07:38.416Z,3.30
2023-04-11T22:10:10.175Z,3.47
2023-04-11T22:12:38.581Z,4.57
2023-04-11T22:15:07.817Z,3.20
2023-04-11T22:17:37.255Z,3.77
2023-04-11T22:20:09.182Z,3.47
2023-04-11T22:22:38.801Z,4.93
2023-04-11T22:25:08.339Z,3.43
2023-04-11T22:27:36.266Z,3.00
2023-04-11T22:30:05.194Z,3.30
2023-04-11T22:32:33.634Z,3.13
2023-04-11T22:35:01.966Z,3.20
2023-04-11T22:37:29.931Z,3.70
2023-04-11T22:39:59.441Z,3.30
2023-04-11T22:42:27.428Z,3.53
2023-04-11T22:44:55.487Z,3.87
2023-04-11T22:47:23.506Z,3.00
2023-04-11T22:49:51.409Z,2.87
2023-04-11T22:52:24.240Z,3.83
2023-04-11T22:54:52.609Z,3.20
2023-04-11T22:57:21.883Z,3.80
2023-04-11T22:59:49.816Z,3.37
2023-04-11T23:02:17.776Z,3.43
2023-04-11T23:04:45.784Z,3.37
2023-04-11T23:07:13.893Z,3.20
2023-04-11T23:09:42.564Z,3.20
2023-04-11T23:12:10.573Z,3.30
2023-04-11T23:14:39.893Z,3.10
2023-04-11T23:17:07.816Z,3.73
2023-04-11T23:19:36.678Z,3.07
2023-04-11T23:22:04.718Z,3.73
2023-04-11T23:24:32.635Z,3.10
2023-04-11T23:27:00.622Z,3.50
2023-04-11T23:29:28.550Z,3.93
2023-04-11T23:31:57.982Z,3.13
2023-04-11T23:34:25.935Z,3.00
2023-04-11T23:36:53.921Z,2.90
2023-04-11T23:39:22.740Z,2.83
2023-04-11T23:41:51.994Z,3.17
2023-04-11T23:44:19.910Z,3.20
2023-04-11T23:46:47.809Z,2.63
2023-04-11T23:49:17.157Z,2.97
2023-04-11T23:51:45.067Z,2.50
2023-04-11T23:54:13.034Z,3.90
2023-04-11T23:56:41.056Z,3.00
2023-04-11T23:59:08.949Z,3.13
